الصفحة الرئيسية
METAR-TAF:

METAR-TAF

مطار :

Weno, مايكرونيزيا

دائرة عرض: 07-28N, خط طول: 151-51E, ارتفاع: 3 متر

مراقبة الطقس الحالي

تاريخ ووقت الإصدار 21 دقيقة قبل الساعة 09:50UTC
ريح 4 عقدةمن اتجاهات متغيرة
درجة الحرارة 28°درجة مئوية
الرطوبة 94%
ضغط 1009 hPa
الرؤية: 24.1 كم
غيوم قليلة على ارتفاع 1200 قدم, مزنة ركامية.
غيوم متفرقة على ارتفاع 12000 قدم
غيوم مفككة على ارتفاع 28000 قدم

METAR: PTKK 200950Z VRB04KT 15SM FEW012CB SCT120 BKN280 28/27 A2981 RMK CB SE SLP089 T02820267

زمن: 20:11 (10:11 UTC)

توقعات

تاريخ ووقت الإصدار 4ساعات و 51 دقيقة قبل الساعة 05:20UTC
التوقعات صالحة من20 الساعة 06 UTC إلى 21 الساعة 06 UTC
ريح 10 عقدة من الشرق
الرؤية: 10 كم
غيوم قليلة على ارتفاع 1200 قدم
غيوم متفرقة على ارتفاع 3000 قدم
غيوم متفرقة على ارتفاع 10000 قدم
زخات في الجوار,

TAF: PTKK 200520Z 2006/2106 10010KT P6SM VCSH FEW012 SCT030 SCT100

أرصاد الطقس والتوقعات من أكثر من 4000 مطار (تقارير الطقس للمطار METAR والتنبؤ بالطقس بالمطارTAF).

المحطات المتاحة هي النقط الصفراء والحمراء على الخريطة.

حرك المؤشر فوق النقطة لمعرفة اسم المحطة.

ثم انقر لمعرفة أرصاد وتوقعات الطقس.

لتغيير الخارطة: اضغط على الأزرار الخضراء مع رمز الصليب الأسود للتكبير. على الزر الأخضر مع شرطة للتصغير، أو على الأسهم الخضراء للخرائط المجاورة.


METAR-TAF: